Time;durP1;ratioP1;P1;durP2;ratioP2;P2;SDS_P1;SDS_P2;PMS_P1;PMS_P2;Temp;Humidity;BMP_temperature;BMP_pressure;BME280_temperature;BME280_humidity;BME280_pressure;Samples;Min_cycle;Max_cycle;Signal;HPM_P1;HPM_P2
2024/02/24 00:01:48;;;;;;;17.00;13.70;;;;;;;17.35;51.92;99588.08;108237;1253;59675;-60
2024/02/24 00:04:55;;;;;;;18.30;13.10;;;;;;;17.38;52.03;99586.04;108158;1252;72989;-60
2024/02/24 00:08:03;;;;;;;18.30;13.80;;;;;;;17.34;51.92;99582.80;108171;1253;69214;-60
2024/02/24 00:11:22;;;;;;;21.10;14.20;;;;;;;16.86;53.29;99581.95;108188;1254;73407;-61
2024/02/24 00:14:40;;;;;;;17.70;13.10;;;;;;;16.61;54.03;99581.47;108154;1253;60838;-60
2024/02/24 00:17:58;;;;;;;18.70;13.30;;;;;;;16.79;54.03;99583.96;108232;1253;60044;-60
2024/02/24 00:21:17;;;;;;;20.30;13.60;;;;;;;16.88;53.80;99582.89;108199;1254;73635;-60
2024/02/24 00:24:36;;;;;;;16.60;13.30;;;;;;;16.92;53.45;99582.36;108215;1253;69164;-60
2024/02/24 00:27:54;;;;;;;16.70;12.80;;;;;;;16.92;53.65;99584.69;108150;1253;72996;-61
2024/02/24 00:31:13;;;;;;;16.40;13.20;;;;;;;17.04;53.34;99588.27;108106;1253;60648;-66
2024/02/24 00:34:33;;;;;;;17.40;12.70;;;;;;;17.04;53.27;99589.66;108206;1253;62036;-63
2024/02/24 00:37:52;;;;;;;13.40;11.90;;;;;;;17.03;53.16;99587.63;108339;1252;72705;-59
2024/02/24 00:41:09;;;;;;;14.30;11.80;;;;;;;17.41;52.12;99584.58;108197;1253;68469;-60
2024/02/24 00:44:28;;;;;;;15.80;12.40;;;;;;;17.64;51.22;99584.19;108089;1253;72375;-61
2024/02/24 00:47:47;;;;;;;16.90;13.00;;;;;;;17.58;50.67;99588.48;108189;1253;63388;-61
2024/02/24 00:51:07;;;;;;;16.10;11.20;;;;;;;17.39;51.17;99582.23;108135;1253;60356;-60
2024/02/24 00:54:24;;;;;;;15.80;12.60;;;;;;;17.27;51.34;99586.13;108304;1252;74479;-60
2024/02/24 00:57:43;;;;;;;15.90;11.90;;;;;;;17.72;50.49;99585.03;108232;1253;70320;-60
2024/02/24 01:01:00;;;;;;;16.00;12.60;;;;;;;17.83;49.78;99581.92;108272;1253;72744;-60
2024/02/24 01:04:20;;;;;;;13.60;11.00;;;;;;;17.77;49.73;99585.02;108162;1252;60674;-60
2024/02/24 01:07:39;;;;;;;13.70;11.00;;;;;;;17.82;49.56;99579.31;108341;1252;59699;-59
2024/02/24 01:10:13;;;;;;;15.20;11.90;;;;;;;17.87;49.13;99576.80;108180;1251;73944;-61
2024/02/24 01:13:07;;;;;;;;;;;;;;;17.84;49.18;99574.21;108152;1254;69042;-60
2024/02/24 01:16:55;;;;;;;14.60;11.20;;;;;;;17.78;49.05;99576.25;108335;1252;72500;-60
2024/02/24 01:20:14;;;;;;;13.50;11.10;;;;;;;17.53;49.59;99577.90;108166;1253;60614;-59
2024/02/24 01:23:32;;;;;;;15.80;11.70;;;;;;;17.17;50.54;99582.95;108174;1252;60750;-59
2024/02/24 01:26:51;;;;;;;14.30;12.20;;;;;;;17.28;50.06;99581.10;108012;1253;73689;-59
2024/02/24 01:30:13;;;;;;;16.30;11.80;;;;;;;17.03;50.82;99579.50;108155;1253;69212;-59
2024/02/24 01:33:31;;;;;;;13.50;10.90;;;;;;;17.09;50.71;99582.65;108172;1254;72435;-61
2024/02/24 01:36:49;;;;;;;16.00;11.60;;;;;;;17.15;50.58;99577.23;108213;1253;59653;-59
2024/02/24 01:40:08;;;;;;;14.80;12.20;;;;;;;17.11;50.68;99582.26;108211;1253;62492;-60
2024/02/24 01:43:29;;;;;;;15.10;11.50;;;;;;;17.23;50.22;99583.23;108201;1253;72799;-62
2024/02/24 01:46:45;;;;;;;14.30;11.80;;;;;;;16.71;51.68;99584.19;108407;1253;69204;-61
2024/02/24 01:50:00;;;;;;;15.20;11.60;;;;;;;16.71;51.68;99587.53;108155;1253;71496;-60
2024/02/24 01:53:19;;;;;;;14.60;12.00;;;;;;;16.73;51.63;99592.52;108192;1253;61239;-60
2024/02/24 01:56:40;;;;;;;15.60;11.40;;;;;;;16.73;51.70;99595.17;108086;1254;60409;-60
2024/02/24 01:59:56;;;;;;;15.60;10.70;;;;;;;16.71;51.42;99587.36;108242;1253;73574;-60
2024/02/24 02:03:22;;;;;;;15.80;11.50;;;;;;;16.68;51.49;99591.11;108097;1253;69074;-60
2024/02/24 02:06:42;;;;;;;14.50;10.70;;;;;;;16.73;51.05;99591.67;108150;1253;73363;-61
2024/02/24 02:10:01;;;;;;;15.00;10.30;;;;;;;16.63;51.42;99588.59;107993;1252;60569;-60
2024/02/24 02:13:19;;;;;;;14.00;10.80;;;;;;;16.65;51.24;99584.62;108277;1252;58706;-60
2024/02/24 02:16:38;;;;;;;10.60;9.50;;;;;;;16.65;51.32;99580.86;108021;1253;73659;-59
2024/02/24 02:19:57;;;;;;;13.30;10.50;;;;;;;16.75;50.80;99586.34;108040;1253;69140;-60
2024/02/24 02:23:15;;;;;;;13.90;9.90;;;;;;;16.72;50.94;99581.09;108229;1253;72799;-61
2024/02/24 02:26:34;;;;;;;15.10;10.00;;;;;;;16.61;51.10;99580.23;108133;1254;60945;-60
2024/02/24 02:29:53;;;;;;;15.50;10.50;;;;;;;16.56;51.39;99583.27;108187;1252;60441;-63
2024/02/24 02:33:13;;;;;;;13.10;10.40;;;;;;;16.60;51.19;99579.62;107959;1252;72745;-60
2024/02/24 02:36:32;;;;;;;18.60;10.90;;;;;;;16.48;51.39;99579.00;108131;1254;69657;-60
2024/02/24 02:39:16;;;;;;;16.80;11.20;;;;;;;16.63;51.09;99589.52;108025;1253;72118;-60
2024/02/24 02:42:09;;;;;;;;;;;;;;;16.92;50.19;99593.40;108226;1253;60692;-59
2024/02/24 02:46:44;;;;;;;14.80;9.80;;;;;;;16.65;50.71;99600.70;108385;1252;59655;-60
2024/02/24 02:50:03;;;;;;;14.50;10.10;;;;;;;16.59;50.85;99605.55;108163;1253;73787;-60
2024/02/24 02:53:22;;;;;;;16.70;10.80;;;;;;;16.66;50.65;99610.86;108296;1252;69592;-61
2024/02/24 02:56:41;;;;;;;16.10;11.00;;;;;;;16.66;50.62;99616.17;108125;1253;72958;-61
2024/02/24 02:59:53;;;;;;;15.30;10.80;;;;;;;16.73;50.19;99613.39;108176;1252;59587;-60
2024/02/24 03:03:16;;;;;;;15.40;10.70;;;;;;;16.89;49.99;99609.36;108020;1255;60075;-60
2024/02/24 03:06:35;;;;;;;13.60;11.00;;;;;;;16.91;49.75;99607.02;108213;1253;73534;-60
2024/02/24 03:09:12;;;;;;;13.90;10.50;;;;;;;16.76;49.95;99603.49;108174;1251;69197;-62
2024/02/24 03:12:24;;;;;;;17.60;11.20;;;;;;;16.72;50.12;99599.66;107971;1253;72282;-59
2024/02/24 03:15:44;;;;;;;14.30;10.30;;;;;;;16.75;50.11;99598.81;107910;1253;60655;-61
2024/02/24 03:19:02;;;;;;;17.70;11.50;;;;;;;16.50;50.43;99596.73;108185;1251;59117;-59
2024/02/24 03:22:21;;;;;;;18.10;11.30;;;;;;;16.57;50.36;99600.36;108223;1253;74492;-59
2024/02/24 03:25:39;;;;;;;15.00;10.30;;;;;;;16.65;50.34;99601.23;108346;1252;69597;-59
2024/02/24 03:28:58;;;;;;;13.90;11.20;;;;;;;16.65;50.18;99606.01;107982;1253;72451;-60
2024/02/24 03:32:17;;;;;;;14.00;10.60;;;;;;;16.58;50.13;99612.30;108169;1254;59689;-60
2024/02/24 03:35:36;;;;;;;16.40;11.30;;;;;;;16.68;49.98;99611.10;108272;1252;60740;-60
2024/02/24 03:38:55;;;;;;;15.60;10.60;;;;;;;16.64;49.86;99608.16;108232;1253;73623;-59
2024/02/24 03:42:16;;;;;;;16.50;11.10;;;;;;;16.63;49.91;99606.84;108173;1252;69471;-60
2024/02/24 03:45:35;;;;;;;15.50;11.20;;;;;;;16.61;49.69;99611.58;108277;1252;72892;-59
2024/02/24 03:48:09;;;;;;;13.10;10.60;;;;;;;16.71;49.53;99617.28;108182;1253;61429;-60
2024/02/24 03:51:22;;;;;;;14.10;11.30;;;;;;;16.66;49.27;99620.61;108185;1254;59824;-60
2024/02/24 03:54:40;;;;;;;11.70;10.30;;;;;;;16.78;49.25;99625.86;108325;1252;73592;-60
2024/02/24 03:57:58;;;;;;;15.10;10.90;;;;;;;16.56;49.43;99628.75;108227;1254;69318;-60
2024/02/24 04:01:17;;;;;;;15.30;10.50;;;;;;;16.54;49.66;99625.86;108208;1254;72323;-61
2024/02/24 04:04:07;;;;;;;12.30;10.50;;;;;;;16.60;49.41;99623.31;108137;1253;59607;-59
2024/02/24 04:07:21;;;;;;;15.40;11.20;;;;;;;16.69;48.99;99625.52;107839;1253;59860;-60
2024/02/24 04:10:39;;;;;;;18.40;11.30;;;;;;;16.79;48.77;99622.41;108131;1253;74079;-60
2024/02/24 04:13:58;;;;;;;15.70;10.20;;;;;;;16.83;48.62;99624.78;108177;1253;69876;-60
2024/02/24 04:17:16;;;;;;;16.10;10.70;;;;;;;16.78;48.56;99629.36;108336;1252;72514;-61
2024/02/24 04:20:35;;;;;;;19.20;10.80;;;;;;;16.80;48.38;99628.17;108338;1252;60908;-60
2024/02/24 04:23:54;;;;;;;12.70;9.70;;;;;;;16.63;48.68;99630.72;108178;1254;58803;-60
2024/02/24 04:27:12;;;;;;;15.30;10.30;;;;;;;16.73;48.68;99628.46;108204;1253;74656;-60
2024/02/24 04:30:31;;;;;;;12.80;10.10;;;;;;;16.57;48.65;99625.45;108362;1253;69364;-59
2024/02/24 04:33:51;;;;;;;14.70;9.60;;;;;;;16.51;48.86;99625.71;108290;1253;72450;-60
2024/02/24 04:37:10;;;;;;;14.50;10.30;;;;;;;16.53;49.11;99622.70;108179;1254;60643;-62
2024/02/24 04:40:28;;;;;;;12.90;9.80;;;;;;;16.79;48.21;99628.59;108338;1252;60711;-60
2024/02/24 04:43:44;;;;;;;13.90;9.80;;;;;;;16.75;48.21;99633.30;108324;1252;73595;-61
2024/02/24 04:47:02;;;;;;;14.10;10.30;;;;;;;16.88;47.82;99634.92;108181;1253;71737;-62
2024/02/24 04:50:14;;;;;;;12.40;9.60;;;;;;;16.80;47.73;99642.50;108086;1253;72292;-64
2024/02/24 04:53:32;;;;;;;10.70;9.10;;;;;;;16.79;47.62;99645.05;108195;1252;61211;-61
2024/02/24 04:56:51;;;;;;;12.40;8.90;;;;;;;16.72;47.51;99647.10;108147;1253;58857;-62
2024/02/24 04:59:40;;;;;;;15.00;9.60;;;;;;;16.70;47.66;99654.34;108191;1252;74821;-61
2024/02/24 05:02:52;;;;;;;12.60;9.40;;;;;;;16.55;47.87;99654.10;108138;1251;70012;-61
2024/02/24 05:05:41;;;;;;;11.10;9.00;;;;;;;16.54;47.92;99659.14;108044;1253;72908;-62
2024/02/24 05:08:53;;;;;;;11.10;8.80;;;;;;;16.48;47.98;99658.09;108105;1254;60768;-62
2024/02/24 05:12:13;;;;;;;13.10;9.30;;;;;;;16.55;48.06;99661.21;108251;1253;59824;-61
2024/02/24 05:16:35;;;;;;;10.10;9.10;;;;;;;16.15;52.77;99670.94;102505;1285;604526;-61
2024/02/24 05:19:47;;;;;;;13.40;8.80;;;;;;;17.09;46.84;99678.09;104263;1267;63439;-62
2024/02/24 05:23:06;;;;;;;10.10;8.20;;;;;;;17.22;46.26;99679.45;103764;1271;60077;-61
2024/02/24 05:26:25;;;;;;;13.60;8.70;;;;;;;17.00;46.26;99681.39;103877;1273;71833;-62
2024/02/24 05:29:00;;;;;;;11.90;9.20;;;;;;;16.89;46.29;99680.86;103555;1265;868073;-62
2024/02/24 05:32:14;;;;;;;12.60;9.10;;;;;;;16.80;46.25;99683.73;104661;1265;72857;-61
2024/02/24 05:35:32;;;;;;;12.10;8.40;;;;;;;16.95;45.97;99689.15;104093;1269;61068;-61
2024/02/24 05:38:51;;;;;;;14.70;8.60;;;;;;;16.83;45.86;99692.05;104603;1261;60638;-62
2024/02/24 05:42:12;;;;;;;12.30;8.60;;;;;;;16.73;46.18;99699.44;104901;1264;72437;-61
2024/02/24 05:45:31;;;;;;;9.80;8.30;;;;;;;16.68;46.26;99698.34;104552;1260;69014;-62
2024/02/24 05:48:50;;;;;;;12.90;8.50;;;;;;;16.76;45.98;99699.05;104324;1262;72495;-62
2024/02/24 05:52:03;;;;;;;10.70;8.10;;;;;;;16.52;46.50;99696.95;104989;1268;60644;-61
2024/02/24 05:55:22;;;;;;;11.40;8.60;;;;;;;16.72;46.27;99700.90;106102;1258;59667;-62
2024/02/24 05:58:41;;;;;;;10.70;8.30;;;;;;;16.88;45.69;99698.24;105334;1253;72769;-61
2024/02/24 06:01:22;;;;;;;11.40;8.50;;;;;;;16.64;46.04;99704.27;105557;1256;70280;-61
2024/02/24 06:04:05;;;;;;;13.20;9.10;;;;;;;16.49;46.64;99709.35;105268;1261;72775;-60
2024/02/24 06:07:18;;;;;;;10.30;8.50;;;;;;;16.86;45.99;99704.27;105306;1256;60708;-61
2024/02/24 06:10:38;;;;;;;11.20;8.70;;;;;;;16.97;45.72;99702.23;105501;1254;60252;-61
2024/02/24 06:13:58;;;;;;;9.80;7.80;;;;;;;16.85;45.85;99706.23;105299;1253;73570;-60
2024/02/24 06:17:16;;;;;;;11.20;8.20;;;;;;;16.93;45.81;99707.11;104869;1257;68461;-62
2024/02/24 06:20:36;;;;;;;10.80;8.20;;;;;;;16.99;45.71;99713.84;104747;1260;72437;-61
2024/02/24 06:23:55;;;;;;;11.30;8.30;;;;;;;16.99;45.67;99715.05;104340;1260;61946;-62
2024/02/24 06:26:58;;;;;;;10.60;8.10;;;;;;;17.13;45.19;99719.73;104485;1260;59695;-61
2024/02/24 06:30:11;;;;;;;12.00;8.70;;;;;;;17.01;45.19;99722.92;104712;1259;73241;-62
2024/02/24 06:33:21;;;;;;;10.50;8.20;;;;;;;17.05;45.20;99725.99;104443;1258;68253;-62
2024/02/24 06:36:35;;;;;;;9.10;8.10;;;;;;;16.92;45.53;99719.77;105616;1260;73346;-60
2024/02/24 06:39:15;;;;;;;10.70;7.60;;;;;;;16.77;46.12;99719.88;105225;1259;60239;-63
2024/02/24 06:42:27;;;;;;;11.40;8.10;;;;;;;16.81;46.01;99719.08;104687;1259;60254;-61
2024/02/24 06:45:46;;;;;;;10.00;7.90;;;;;;;17.20;45.32;99720.90;104648;1259;72813;-62
2024/02/24 06:49:06;;;;;;;10.50;8.00;;;;;;;17.39;44.71;99716.17;105010;1259;70066;-61
2024/02/24 06:52:04;;;;;;;11.20;7.90;;;;;;;17.25;44.96;99720.71;105345;1254;73891;-65
2024/02/24 06:55:16;;;;;;;10.80;8.00;;;;;;;17.30;44.84;99718.27;105618;1254;61688;-64
2024/02/24 06:58:30;;;;;;;10.90;8.10;;;;;;;17.38;44.61;99718.59;104351;1262;61026;-62
2024/02/24 07:01:50;;;;;;;11.20;7.90;;;;;;;17.32;44.73;99715.30;104437;1255;71914;-60
2024/02/24 07:05:08;;;;;;;9.70;7.20;;;;;;;17.33;44.76;99719.98;105218;1253;68405;-62
2024/02/24 07:08:29;;;;;;;8.80;7.30;;;;;;;17.32;44.95;99715.80;104644;1259;74713;-63
2024/02/24 07:11:47;;;;;;;10.80;7.60;;;;;;;17.58;44.34;99716.80;105026;1260;60656;-62
2024/02/24 07:15:08;;;;;;;9.00;7.40;;;;;;;17.45;44.67;99709.05;104615;1260;59683;-61
2024/02/24 07:18:28;;;;;;;11.80;7.20;;;;;;;17.59;44.40;99707.20;105099;1265;71572;-60
2024/02/24 07:21:48;;;;;;;10.00;7.70;;;;;;;17.65;44.14;99715.98;105249;1258;69182;-60
2024/02/24 07:25:08;;;;;;;11.90;7.30;;;;;;;17.63;44.18;99710.22;104643;1262;73515;-62
2024/02/24 07:28:27;;;;;;;10.60;7.40;;;;;;;17.73;43.86;99712.59;104758;1259;59749;-65
2024/02/24 07:31:44;;;;;;;11.60;8.20;;;;;;;17.70;43.95;99708.52;104965;1259;60752;-70
2024/02/24 07:34:15;;;;;;;8.80;7.50;;;;;;;17.81;43.91;99713.59;105207;1268;72909;-66
2024/02/24 07:37:26;;;;;;;9.70;7.40;;;;;;;17.78;43.85;99711.70;105386;1258;69484;-66
2024/02/24 07:40:46;;;;;;;8.00;7.20;;;;;;;17.86;43.70;99709.72;104725;1257;72748;-62
2024/02/24 07:44:08;;;;;;;8.50;6.80;;;;;;;17.92;43.93;99701.10;104703;1260;60878;-65
2024/02/24 07:47:28;;;;;;;10.80;7.20;;;;;;;17.94;43.88;99690.02;104771;1254;59790;-65
2024/02/24 07:50:49;;;;;;;8.30;6.70;;;;;;;17.99;43.90;99685.56;104683;1258;73262;-64
2024/02/24 07:54:07;;;;;;;9.30;6.10;;;;;;;17.97;43.95;99679.67;104644;1259;70170;-63
2024/02/24 07:57:10;;;;;;;10.20;6.60;;;;;;;18.12;43.62;99679.33;105210;1259;74325;-65
2024/02/24 07:59:42;;;;;;;6.90;6.00;;;;;;;18.05;43.72;99677.98;105259;1255;61391;-63
2024/02/24 08:02:54;;;;;;;7.60;6.90;;;;;;;18.09;43.89;99675.96;105381;1254;60676;-65
2024/02/24 08:06:06;;;;;;;9.10;6.20;;;;;;;18.09;43.87;99671.86;105298;1252;72846;-63
2024/02/24 08:09:24;;;;;;;8.10;5.80;;;;;;;18.25;43.68;99680.45;104454;1260;69421;-64
2024/02/24 08:16:54;;;;;;;8.40;6.30;;;;;;;18.37;43.57;99684.56;105020;1276;62645;-64
2024/02/24 08:36:07;;;;;;;8.40;6.40;;;;;;;18.56;43.53;99692.73;104563;1257;72890;-62
2024/02/24 08:39:02;;;;;;;10.40;7.00;;;;;;;18.43;43.71;99688.18;104501;1260;62333;-62
2024/02/24 08:46:43;;;;;;;8.90;6.00;;;;;;;18.54;43.76;99686.98;105022;1257;74459;-63
2024/02/24 08:50:07;;;;;;;7.50;6.10;;;;;;;18.58;43.60;99687.92;104738;1257;70838;-64
2024/02/24 08:52:40;;;;;;;10.10;6.20;;;;;;;18.51;43.91;99696.61;105397;1256;72243;-64
2024/02/24 09:43:16;;;;;;;9.60;6.30;;;;;;;19.11;43.82;99703.48;106017;1253;61683;-65
2024/02/24 09:50:59;;;;;;;10.80;7.00;;;;;;;19.41;43.55;99703.05;104826;1254;68628;-64
2024/02/24 09:58:25;;;;;;;9.90;6.70;;;;;;;19.73;43.05;99714.76;105863;1254;63359;-63
2024/02/24 10:29:07;;;;;;;10.40;6.20;;;;;;;20.42;42.50;99703.49;104591;1256;69568;-62
2024/02/24 10:41:32;;;;;;;11.00;7.60;;;;;;;19.43;44.40;99699.73;104471;1260;60317;-63
2024/02/24 10:45:28;;;;;;;10.10;7.10;;;;;;;19.06;45.20;99706.31;104689;1260;75511;-62
2024/02/24 10:56:47;;;;;;;11.40;7.30;;;;;;;18.86;45.95;99700.75;104807;1260;62283;-60
2024/02/24 11:15:32;;;;;;;8.50;7.20;;;;;;;18.99;46.25;99693.05;105036;1257;62401;-65
2024/02/24 11:55:48;;;;;;;8.40;5.80;;;;;;;20.18;44.22;99664.05;108034;1253;74887;-62
2024/02/24 11:58:18;;;;;;;7.90;5.80;;;;;;;20.22;44.05;99664.92;107975;1253;63914;-61
2024/02/24 12:00:58;;;;;;;9.30;6.20;;;;;;;20.24;44.19;99663.36;107913;1253;60529;-62
2024/02/24 12:04:16;;;;;;;8.30;5.80;;;;;;;20.28;44.00;99662.16;108124;1253;76573;-62
2024/02/24 13:06:13;;;;;;;7.00;5.30;;;;;;;21.06;41.81;99672.88;107545;1258;61504;-60
2024/02/24 13:10:47;;;;;;;7.20;5.00;;;;;;;21.06;41.59;99677.31;107853;1252;61012;-59
2024/02/24 13:31:51;;;;;;;5.90;5.20;;;;;;;21.48;41.03;99662.48;107416;1253;59939;-60
2024/02/24 13:34:56;;;;;;;6.20;5.60;;;;;;;21.44;40.86;99661.23;108003;1253;73663;-59
2024/02/24 13:37:26;;;;;;;6.40;5.50;;;;;;;21.39;40.90;99663.24;108115;1253;73498;-59
2024/02/24 13:48:23;;;;;;;6.50;5.00;;;;;;;21.66;40.47;99668.57;108102;1253;59973;-59
2024/02/24 14:12:48;;;;;;;8.50;5.30;;;;;;;21.54;41.02;99682.64;107929;1254;74340;-66
2024/02/24 14:17:47;;;;;;;5.60;5.00;;;;;;;21.50;41.21;99696.34;108350;1253;69409;-62
2024/02/24 14:22:46;;;;;;;7.40;4.90;;;;;;;21.57;41.03;99707.52;108224;1253;72558;-67
2024/02/24 14:27:46;;;;;;;6.20;5.40;;;;;;;21.63;40.73;99706.48;108265;1252;62377;-66
2024/02/24 14:32:45;;;;;;;6.90;5.50;;;;;;;21.65;40.97;99712.95;108335;1251;60158;-66
2024/02/24 14:37:45;;;;;;;5.80;5.30;;;;;;;21.39;41.28;99722.94;108293;1252;73947;-67
2024/02/24 14:42:45;;;;;;;6.20;5.30;;;;;;;21.24;41.47;99727.68;108358;1252;70728;-66
2024/02/24 15:53:42;;;;;;;5.70;5.10;;;;;;;20.96;40.86;99797.02;108118;1253;74700;-59
2024/02/24 16:19:17;;;;;;;6.70;6.00;;;;;;;20.59;41.25;99818.08;107263;1260;71185;-60
2024/02/24 16:22:29;;;;;;;8.30;6.70;;;;;;;20.48;41.34;99824.85;107724;1253;73592;-60
2024/02/24 16:25:11;;;;;;;10.80;8.40;;;;;;;20.15;41.83;99832.60;107999;1253;61320;-61
2024/02/24 16:28:50;;;;;;;7.80;5.60;;;;;;;20.25;42.03;99835.36;108360;1252;59931;-61
2024/02/24 16:31:31;;;;;;;6.20;5.60;;;;;;;20.23;42.02;99839.27;107943;1252;74719;-61
2024/02/24 16:34:17;;;;;;;7.30;6.20;;;;;;;20.25;41.84;99842.35;107926;1252;70464;-61
2024/02/24 16:37:30;;;;;;;7.30;5.60;;;;;;;20.32;41.91;99849.94;107871;1253;74528;-61
2024/02/24 16:40:48;;;;;;;7.20;5.90;;;;;;;20.37;41.63;99853.69;107913;1253;62342;-61
2024/02/24 16:44:03;;;;;;;6.90;5.60;;;;;;;20.44;41.34;99857.30;107892;1253;60935;-62
2024/02/24 16:46:42;;;;;;;6.10;5.50;;;;;;;20.37;41.62;99862.14;107678;1253;76489;-62
2024/02/24 16:50:00;;;;;;;5.40;4.70;;;;;;;20.39;41.75;99868.80;108146;1253;69261;-62
2024/02/24 16:54:16;;;;;;;6.10;4.90;;;;;;;20.43;41.67;99874.20;108349;1253;72602;-61
2024/02/24 16:57:31;;;;;;;5.70;5.10;;;;;;;20.85;40.89;99871.13;108098;1253;62565;-61
2024/02/24 17:00:14;;;;;;;5.80;5.20;;;;;;;20.70;40.96;99873.06;107812;1253;61863;-62
2024/02/24 17:03:13;;;;;;;5.60;5.00;;;;;;;20.87;40.73;99877.79;108114;1253;74771;-62
2024/02/24 17:05:47;;;;;;;5.70;5.20;;;;;;;20.78;40.73;99873.00;108073;1253;71093;-60
2024/02/24 17:09:25;;;;;;;6.20;5.10;;;;;;;20.95;40.41;99874.29;108326;1253;71406;-61
2024/02/24 17:12:39;;;;;;;5.30;4.80;;;;;;;21.18;39.81;99872.13;108048;1253;61510;-61
2024/02/24 17:15:51;;;;;;;4.80;4.40;;;;;;;21.15;39.72;99878.64;108026;1253;62694;-62
2024/02/24 17:19:04;;;;;;;6.20;4.70;;;;;;;21.19;39.66;99883.70;108137;1253;72688;-61
2024/02/24 17:22:23;;;;;;;5.60;5.10;;;;;;;21.26;39.44;99888.27;108131;1253;73771;-62
2024/02/24 17:25:56;;;;;;;5.50;4.70;;;;;;;21.35;39.25;99889.98;108278;1252;71934;-62
2024/02/24 17:33:00;;;;;;;6.10;5.50;;;;;;;20.74;41.51;99891.64;102338;1284;616387;-63
2024/02/24 17:36:39;;;;;;;;;;;;;;;21.97;37.90;99890.69;103787;1271;63266;-63
2024/02/24 17:39:26;;;;;;;6.30;5.70;;;;;;;21.78;37.74;99895.87;104234;1271;59916;-62
2024/02/24 17:43:15;;;;;;;6.30;5.20;;;;;;;21.50;37.81;99899.14;103718;1271;72245;-61
2024/02/24 17:46:30;;;;;;;5.70;4.70;;;;;;;21.53;37.55;99883.52;103403;1269;1024848;-62
2024/02/24 17:49:12;;;;;;;8.20;5.80;;;;;;;21.10;38.31;99901.70;104049;1281;73200;-62
2024/02/24 17:52:31;;;;;;;6.10;5.50;;;;;;;20.79;38.74;99904.27;104234;1280;61200;-62
2024/02/24 17:55:17;;;;;;;5.60;5.00;;;;;;;20.64;39.16;99901.18;104788;1266;59240;-62
2024/02/24 17:57:59;;;;;;;5.40;4.90;;;;;;;20.73;38.98;99909.03;104094;1266;72742;-62
2024/02/24 18:01:11;;;;;;;5.10;4.60;;;;;;;20.90;38.72;99905.33;106091;1260;69536;-62
2024/02/24 18:03:38;;;;;;;6.30;5.20;;;;;;;21.02;38.53;99907.21;105054;1266;73032;-62
2024/02/24 18:06:50;;;;;;;6.40;5.10;;;;;;;21.09;38.43;99913.41;104351;1267;62319;-62
2024/02/24 18:09:38;;;;;;;9.70;5.70;;;;;;;20.66;38.90;99915.45;104081;1266;61930;-63
2024/02/24 18:12:19;;;;;;;7.80;5.20;;;;;;;20.98;38.44;99915.00;104374;1265;72171;-62
2024/02/24 18:15:56;;;;;;;7.10;5.60;;;;;;;20.93;38.32;99918.73;104350;1265;69371;-63
2024/02/24 18:18:39;;;;;;;6.20;4.80;;;;;;;21.00;38.28;99921.41;104039;1277;72545;-62
2024/02/24 18:21:58;;;;;;;6.40;5.50;;;;;;;20.96;38.37;99929.08;104062;1265;61655;-63
2024/02/24 18:24:44;;;;;;;9.50;6.60;;;;;;;20.92;38.25;99935.25;104382;1261;59889;-62
2024/02/24 18:27:46;;;;;;;5.40;4.70;;;;;;;20.89;38.18;99937.31;104358;1266;73010;-62
2024/02/24 18:30:27;;;;;;;6.00;5.40;;;;;;;20.43;38.93;99934.50;104515;1264;69644;-63
2024/02/24 18:33:07;;;;;;;9.60;5.00;;;;;;;20.35;39.08;99930.89;104556;1266;72728;-61
2024/02/24 18:35:42;;;;;;;5.90;5.30;;;;;;;20.30;39.29;99931.29;104415;1260;62182;-60
2024/02/24 18:39:00;;;;;;;5.70;4.80;;;;;;;19.99;39.84;99933.67;104222;1266;59755;-60
2024/02/24 18:42:14;;;;;;;7.50;5.40;;;;;;;19.93;39.99;99935.54;104708;1262;73328;-61
2024/02/24 18:45:01;;;;;;;6.60;5.50;;;;;;;19.85;40.15;99931.17;104454;1263;69474;-61
2024/02/24 18:48:06;;;;;;;7.00;5.30;;;;;;;19.70;40.43;99932.35;104220;1279;72110;-60
2024/02/24 18:51:25;;;;;;;5.60;5.00;;;;;;;19.89;40.22;99929.66;104475;1264;61604;-60
2024/02/24 18:54:06;;;;;;;5.40;4.90;;;;;;;19.98;39.84;99927.88;104099;1273;60444;-60
2024/02/24 18:58:05;;;;;;;5.90;5.20;;;;;;;19.72;40.22;99931.45;104068;1276;71916;-60
2024/02/24 19:01:29;;;;;;;5.80;5.20;;;;;;;19.95;39.82;99930.61;105035;1260;69655;-61
2024/02/24 19:04:11;;;;;;;6.60;5.30;;;;;;;19.92;39.85;99925.02;104612;1263;72729;-61
2024/02/24 19:07:52;;;;;;;6.60;6.00;;;;;;;19.45;40.52;99928.50;103911;1264;63609;-60
2024/02/24 19:10:19;;;;;;;6.20;5.60;;;;;;;19.20;40.82;99927.88;104847;1261;60944;-61
2024/02/24 19:13:28;;;;;;;7.60;6.30;;;;;;;18.97;41.36;99926.02;104726;1266;74928;-60
2024/02/24 19:15:56;;;;;;;9.90;7.00;;;;;;;18.67;41.98;99924.10;104311;1263;69342;-60
2024/02/24 19:18:43;;;;;;;7.40;6.70;;;;;;;18.54;42.20;99929.81;104324;1274;73614;-59
2024/02/24 19:22:08;;;;;;;8.10;6.50;;;;;;;18.58;42.36;99927.02;104907;1264;61883;-60
2024/02/24 19:24:48;;;;;;;7.60;6.80;;;;;;;18.62;42.34;99927.09;104824;1264;61121;-60
2024/02/24 19:28:13;;;;;;;7.60;6.80;;;;;;;18.51;42.56;99930.41;104707;1258;73840;-62
2024/02/24 19:30:54;;;;;;;8.40;6.90;;;;;;;18.60;42.45;99929.37;104201;1279;69853;-62
2024/02/24 19:34:25;;;;;;;8.90;7.10;;;;;;;18.49;42.77;99926.05;104146;1257;73364;-60
2024/02/24 19:37:12;;;;;;;8.40;6.70;;;;;;;18.49;42.93;99925.67;104418;1267;61527;-60
2024/02/24 19:40:17;;;;;;;8.80;6.90;;;;;;;18.93;42.04;99929.15;104770;1257;61579;-59
2024/02/24 19:42:53;;;;;;;9.10;6.40;;;;;;;18.84;42.25;99922.35;104976;1257;73817;-60
2024/02/24 19:46:31;;;;;;;8.20;7.40;;;;;;;18.77;42.33;99924.95;104880;1257;70784;-60
2024/02/24 19:49:43;;;;;;;8.70;7.20;;;;;;;18.99;41.93;99926.06;104273;1261;73552;-60
2024/02/24 19:52:30;;;;;;;7.30;6.60;;;;;;;19.15;41.72;99933.41;104528;1258;61967;-60
2024/02/24 19:55:13;;;;;;;7.70;6.90;;;;;;;19.28;41.48;99929.59;104287;1263;60745;-61
2024/02/24 19:58:40;;;;;;;9.50;7.10;;;;;;;19.30;41.42;99927.84;104509;1257;72860;-60
2024/02/24 20:02:07;;;;;;;7.50;6.70;;;;;;;19.50;41.03;99927.81;104300;1263;70443;-61
2024/02/24 20:04:47;;;;;;;8.70;7.30;;;;;;;19.47;40.97;99921.11;104280;1257;73620;-59
2024/02/24 20:07:14;;;;;;;7.90;6.50;;;;;;;19.40;41.10;99929.26;104913;1257;62871;-61
2024/02/24 20:09:48;;;;;;;8.30;7.30;;;;;;;19.39;41.21;99929.52;104371;1258;61392;-59
2024/02/24 20:13:25;;;;;;;7.10;6.40;;;;;;;19.40;41.02;99926.23;104827;1260;74892;-59
2024/02/24 20:16:38;;;;;;;8.30;6.70;;;;;;;19.31;41.13;99928.33;104840;1257;70368;-59
2024/02/24 20:19:12;;;;;;;10.50;6.30;;;;;;;18.94;41.85;99932.33;104877;1257;74011;-60
2024/02/24 20:21:46;;;;;;;8.00;6.50;;;;;;;19.01;41.83;99930.89;104291;1260;62990;-61
2024/02/24 20:25:24;;;;;;;9.40;6.60;;;;;;;19.20;41.41;99935.02;104967;1257;63522;-61
2024/02/24 20:27:59;;;;;;;7.80;6.30;;;;;;;19.32;41.15;99930.23;105422;1256;74362;-60
2024/02/24 20:31:07;;;;;;;9.60;6.60;;;;;;;19.79;40.53;99934.13;104624;1258;70668;-61
2024/02/24 20:33:47;;;;;;;10.40;7.00;;;;;;;19.75;40.46;99938.95;104517;1260;73414;-61
2024/02/24 20:36:26;;;;;;;7.80;5.90;;;;;;;19.75;40.36;99937.50;104527;1267;61976;-61
2024/02/24 20:39:07;;;;;;;6.80;6.10;;;;;;;19.72;40.26;99938.40;104525;1257;60855;-61
2024/02/24 20:42:26;;;;;;;7.20;6.50;;;;;;;19.80;40.23;99939.92;105221;1256;74006;-61
2024/02/24 20:45:13;;;;;;;7.90;6.20;;;;;;;19.71;40.23;99933.33;105508;1257;71491;-61
2024/02/24 20:48:31;;;;;;;9.00;6.50;;;;;;;19.73;40.26;99931.80;104945;1260;73552;-61
2024/02/24 20:51:18;;;;;;;8.00;6.00;;;;;;;19.71;40.21;99936.19;105378;1260;62720;-61
2024/02/24 20:54:06;;;;;;;7.30;6.20;;;;;;;19.65;40.27;99931.77;104430;1257;61326;-60
2024/02/24 20:57:44;;;;;;;7.50;5.90;;;;;;;19.63;40.19;99925.36;104442;1257;73510;-61
2024/02/24 21:00:57;;;;;;;7.10;6.20;;;;;;;19.05;41.12;99927.89;104443;1258;69437;-61
2024/02/24 21:03:44;;;;;;;7.70;5.70;;;;;;;19.03;41.30;99928.02;104301;1260;74239;-61
2024/02/24 21:06:11;;;;;;;7.60;6.60;;;;;;;19.49;40.53;99928.76;104729;1257;63495;-62